createdAt,value
2023-02-21T00:00:00.425Z,9.70
2023-02-21T00:02:45.734Z,8.97
2023-02-21T00:05:31.038Z,7.90
2023-02-21T00:08:16.344Z,12.00
2023-02-21T00:11:01.744Z,8.57
2023-02-21T00:13:47.416Z,11.10
2023-02-21T00:16:35.542Z,6.77
2023-02-21T00:19:22.061Z,12.70
2023-02-21T00:22:07.352Z,10.37
2023-02-21T00:24:52.883Z,11.03
2023-02-21T00:27:38.434Z,13.83
2023-02-21T00:30:25.599Z,8.17
2023-02-21T00:33:10.980Z,10.43
2023-02-21T00:35:56.292Z,10.70
2023-02-21T00:38:42.244Z,14.03
2023-02-21T00:41:28.134Z,7.47
2023-02-21T00:44:13.971Z,9.23
2023-02-21T00:46:59.178Z,10.97
2023-02-21T00:49:44.144Z,10.33
2023-02-21T00:52:29.522Z,9.57
2023-02-21T00:55:15.077Z,10.73
2023-02-21T00:58:00.263Z,10.40
2023-02-21T01:00:45.559Z,9.47
2023-02-21T01:03:30.970Z,12.23
2023-02-21T01:06:16.481Z,8.93
2023-02-21T01:09:03.326Z,9.37
2023-02-21T01:11:50.871Z,7.20
2023-02-21T01:14:36.244Z,7.70
2023-02-21T01:17:21.553Z,8.00
2023-02-21T01:20:06.901Z,9.10
2023-02-21T01:22:53.219Z,7.97
2023-02-21T01:25:39.247Z,10.57
2023-02-21T01:28:24.524Z,9.17
2023-02-21T01:31:09.744Z,9.00
2023-02-21T01:33:59.613Z,13.10
2023-02-21T01:36:45.990Z,13.00
2023-02-21T01:39:33.152Z,8.60
2023-02-21T01:42:19.556Z,12.03
2023-02-21T01:45:07.169Z,9.83
2023-02-21T01:47:53.066Z,10.90
2023-02-21T01:50:48.401Z,8.60
2023-02-21T01:53:44.409Z,8.97
2023-02-21T01:56:31.258Z,11.10
2023-02-21T01:59:20.150Z,8.83
2023-02-21T02:02:21.799Z,9.67
2023-02-21T02:05:09.981Z,8.40
2023-02-21T02:07:55.860Z,12.77
2023-02-21T02:10:41.757Z,10.20
2023-02-21T02:13:29.126Z,9.43
2023-02-21T02:16:29.838Z,10.00
2023-02-21T02:19:11.670Z,9.53
2023-02-21T02:21:50.529Z,10.03
2023-02-21T02:24:50.635Z,10.57
2023-02-21T02:28:07.243Z,8.73
2023-02-21T02:31:01.863Z,12.07
2023-02-21T02:34:00.040Z,10.80
2023-02-21T02:36:42.043Z,7.80
2023-02-21T02:39:33.908Z,6.97
2023-02-21T02:42:19.341Z,9.23
2023-02-21T02:45:00.637Z,10.37
2023-02-21T02:47:34.667Z,10.30
2023-02-21T02:50:06.676Z,11.87
2023-02-21T02:52:35.436Z,7.10
2023-02-21T02:55:43.132Z,14.83
2023-02-21T02:58:12.564Z,8.70
2023-02-21T03:00:43.258Z,12.17
2023-02-21T03:03:31.528Z,9.13
2023-02-21T03:06:17.613Z,8.50
2023-02-21T03:08:44.286Z,8.93
2023-02-21T03:11:21.126Z,10.47
2023-02-21T03:13:58.690Z,6.57
2023-02-21T03:16:31.026Z,9.83
2023-02-21T03:19:03.720Z,13.47
2023-02-21T03:21:51.679Z,6.27
2023-02-21T03:24:20.684Z,8.87
2023-02-21T03:26:53.702Z,13.30
2023-02-21T03:29:41.341Z,10.97
2023-02-21T03:32:30.867Z,13.40
2023-02-21T03:34:57.721Z,8.83
2023-02-21T03:37:36.628Z,10.20
2023-02-21T03:40:07.671Z,9.73
2023-02-21T03:42:34.712Z,10.67
2023-02-21T03:45:01.549Z,9.90
2023-02-21T03:47:28.438Z,8.37
2023-02-21T03:49:55.519Z,10.00
2023-02-21T03:52:22.269Z,8.43
2023-02-21T03:54:50.008Z,9.70
2023-02-21T03:57:19.928Z,9.33
2023-02-21T03:59:48.057Z,13.80
2023-02-21T04:02:15.501Z,13.80
2023-02-21T04:04:42.559Z,10.67
2023-02-21T04:07:14.980Z,11.37
2023-02-21T04:09:42.767Z,8.40
2023-02-21T04:12:12.889Z,9.93
2023-02-21T04:14:40.614Z,8.10
2023-02-21T04:17:08.284Z,10.63
2023-02-21T04:19:35.689Z,13.03
2023-02-21T04:22:04.198Z,13.40
2023-02-21T04:24:31.460Z,13.93
2023-02-21T04:26:58.641Z,12.50
2023-02-21T04:29:25.778Z,12.13
2023-02-21T04:31:52.758Z,12.70
2023-02-21T04:34:19.542Z,17.40
2023-02-21T04:36:46.778Z,16.50
2023-02-21T04:39:14.480Z,14.53
2023-02-21T04:41:41.237Z,13.17
2023-02-21T04:44:09.264Z,15.27
2023-02-21T04:46:36.062Z,14.90
2023-02-21T04:49:02.856Z,10.57
2023-02-21T04:51:29.656Z,15.33
2023-02-21T04:53:56.927Z,10.60
2023-02-21T04:56:25.782Z,12.10
2023-02-21T04:58:52.600Z,15.20
2023-02-21T05:01:20.518Z,12.53
2023-02-21T05:03:48.124Z,9.87
2023-02-21T05:06:23.567Z,14.80
2023-02-21T05:08:50.507Z,9.23
2023-02-21T05:11:19.587Z,10.03
2023-02-21T05:13:47.143Z,7.40
2023-02-21T05:16:14.028Z,9.03
2023-02-21T05:18:45.158Z,10.50
2023-02-21T05:21:13.368Z,11.57
2023-02-21T05:23:42.728Z,9.40
2023-02-21T05:26:13.520Z,8.20
2023-02-21T05:28:41.510Z,12.37
2023-02-21T05:31:08.792Z,11.23
2023-02-21T05:33:35.568Z,11.60
2023-02-21T05:36:02.471Z,12.20
2023-02-21T05:38:29.119Z,12.13
2023-02-21T05:40:55.825Z,11.03
2023-02-21T05:43:22.542Z,13.47
2023-02-21T05:45:49.248Z,16.90
2023-02-21T05:48:16.018Z,15.13
2023-02-21T05:50:42.707Z,15.00
2023-02-21T05:53:10.376Z,14.60
2023-02-21T05:55:37.528Z,14.05
2023-02-21T05:58:04.523Z,14.77
2023-02-21T06:00:31.587Z,12.07
2023-02-21T06:02:58.347Z,19.53
2023-02-21T06:05:25.418Z,16.17
2023-02-21T06:07:52.195Z,17.00
2023-02-21T06:10:19.750Z,13.03
2023-02-21T06:12:47.018Z,13.90
2023-02-21T06:15:14.150Z,12.70
2023-02-21T06:17:42.270Z,13.73
2023-02-21T06:20:12.907Z,11.73
2023-02-21T06:22:39.578Z,10.77
2023-02-21T06:25:06.930Z,10.67
2023-02-21T06:27:33.655Z,10.53
2023-02-21T06:30:00.376Z,10.80
2023-02-21T06:32:27.741Z,14.23
2023-02-21T06:34:54.507Z,12.70
2023-02-21T06:37:21.237Z,19.53
2023-02-21T06:39:47.981Z,10.83
2023-02-21T06:42:15.964Z,12.07
2023-02-21T06:44:46.822Z,16.97
2023-02-21T06:47:14.472Z,11.60
2023-02-21T06:49:41.284Z,13.17
2023-02-21T06:52:08.731Z,13.33
2023-02-21T06:54:35.860Z,11.93
2023-02-21T06:57:02.651Z,10.97
2023-02-21T06:59:29.727Z,11.40
2023-02-21T07:01:57.227Z,12.60
2023-02-21T07:04:25.030Z,14.33
2023-02-21T07:06:52.503Z,12.03
2023-02-21T07:09:19.552Z,11.40
2023-02-21T07:11:46.982Z,15.53
2023-02-21T07:14:14.826Z,14.57
2023-02-21T07:16:41.529Z,13.67
2023-02-21T07:19:08.358Z,15.43
2023-02-21T07:21:35.453Z,13.03
2023-02-21T07:24:02.139Z,15.33
2023-02-21T07:26:28.951Z,12.27
2023-02-21T07:28:55.662Z,15.80
2023-02-21T07:31:22.729Z,11.93
2023-02-21T07:33:49.621Z,11.93
2023-02-21T07:36:16.575Z,15.30
2023-02-21T07:38:43.263Z,13.40
2023-02-21T07:41:10.076Z,12.17
2023-02-21T07:43:36.984Z,14.13
2023-02-21T07:46:03.686Z,11.17
2023-02-21T07:48:30.413Z,11.77
2023-02-21T07:50:57.106Z,19.40
2023-02-21T07:53:23.751Z,16.60
2023-02-21T07:55:50.501Z,18.87
2023-02-21T07:58:19.135Z,20.20
2023-02-21T08:00:47.079Z,15.67
2023-02-21T08:03:14.428Z,19.13
2023-02-21T08:05:41.552Z,16.50
2023-02-21T08:08:09.511Z,16.20
2023-02-21T08:10:36.579Z,14.77
2023-02-21T08:13:03.987Z,20.80
2023-02-21T08:15:30.680Z,17.93
2023-02-21T08:17:57.315Z,17.83
2023-02-21T08:20:23.959Z,19.07
2023-02-21T08:22:50.703Z,17.40
2023-02-21T08:25:18.553Z,21.40
2023-02-21T08:27:46.546Z,18.97
2023-02-21T08:30:16.666Z,19.03
2023-02-21T08:32:43.847Z,19.03
2023-02-21T08:35:17.268Z,17.40
2023-02-21T08:37:45.711Z,18.37
2023-02-21T08:40:13.897Z,21.50
2023-02-21T08:42:41.457Z,16.50
2023-02-21T08:45:11.949Z,15.27
2023-02-21T08:47:38.619Z,20.60
2023-02-21T08:50:05.831Z,18.03
2023-02-21T08:52:32.455Z,17.17
2023-02-21T08:54:59.181Z,13.23
2023-02-21T08:57:25.985Z,15.43
2023-02-21T08:59:52.798Z,12.40
2023-02-21T09:02:25.261Z,16.20
2023-02-21T09:04:53.080Z,13.70
2023-02-21T09:07:21.725Z,15.67
2023-02-21T09:09:48.953Z,14.93
2023-02-21T09:12:16.108Z,17.80
2023-02-21T09:14:43.687Z,18.83
2023-02-21T09:17:13.385Z,14.27
2023-02-21T09:19:40.807Z,19.63
2023-02-21T09:22:08.738Z,17.70
2023-02-21T09:24:35.454Z,16.97
2023-02-21T09:27:05.096Z,17.13
2023-02-21T09:29:45.072Z,19.37
2023-02-21T09:32:13.925Z,21.63
2023-02-21T09:34:40.706Z,22.43
2023-02-21T09:37:07.423Z,18.93
2023-02-21T09:39:36.616Z,19.13
2023-02-21T09:42:03.399Z,18.10
2023-02-21T09:44:30.395Z,19.07
2023-02-21T09:47:04.972Z,21.53
2023-02-21T09:49:39.096Z,24.07
2023-02-21T09:52:08.497Z,20.47
2023-02-21T09:54:43.471Z,21.47
2023-02-21T09:57:15.906Z,21.33
2023-02-21T09:59:42.855Z,15.10
2023-02-21T10:02:14.436Z,16.20
2023-02-21T10:05:03.798Z,14.33
2023-02-21T10:07:42.299Z,17.70
2023-02-21T10:10:25.491Z,17.87
2023-02-21T10:13:19.292Z,16.70
2023-02-21T10:15:53.321Z,15.03
2023-02-21T10:18:38.563Z,14.63
2023-02-21T10:21:15.109Z,15.50
2023-02-21T10:23:47.181Z,15.53
2023-02-21T10:26:25.190Z,13.27
2023-02-21T10:28:53.997Z,14.13
2023-02-21T10:31:28.373Z,12.73
2023-02-21T10:33:55.204Z,11.77
2023-02-21T10:36:23.233Z,11.23
2023-02-21T10:39:16.954Z,11.97
2023-02-21T10:41:43.881Z,14.47
2023-02-21T10:44:19.538Z,13.60
2023-02-21T10:47:24.794Z,10.30
2023-02-21T10:50:09.313Z,14.53
2023-02-21T10:52:48.729Z,10.07
2023-02-21T10:55:30.146Z,11.00
2023-02-21T10:58:06.393Z,10.20
2023-02-21T11:00:36.903Z,9.30
2023-02-21T11:03:27.441Z,10.57
2023-02-21T11:05:57.781Z,9.37
2023-02-21T11:08:39.917Z,8.03
2023-02-21T11:11:07.456Z,8.37
2023-02-21T11:13:36.111Z,11.90
2023-02-21T11:16:17.606Z,6.70
2023-02-21T11:18:44.864Z,6.90
2023-02-21T11:21:16.714Z,8.77
2023-02-21T11:23:54.664Z,6.33
2023-02-21T11:26:21.543Z,6.93
2023-02-21T11:28:48.496Z,6.10
2023-02-21T11:31:31.089Z,6.67
2023-02-21T11:34:04.261Z,5.67
2023-02-21T11:36:34.097Z,6.90
2023-02-21T11:39:02.543Z,5.17
2023-02-21T11:41:35.834Z,6.67
2023-02-21T11:44:02.529Z,6.87
2023-02-21T11:46:45.459Z,5.33
2023-02-21T11:49:14.938Z,5.70
2023-02-21T11:51:51.032Z,5.63
2023-02-21T11:54:30.416Z,6.17
2023-02-21T11:57:13.946Z,7.30
2023-02-21T11:59:46.903Z,6.77
2023-02-21T12:02:42.313Z,8.90
2023-02-21T12:05:17.960Z,7.10
2023-02-21T12:07:47.605Z,5.93
2023-02-21T12:10:28.842Z,6.07
2023-02-21T12:13:25.910Z,9.57
2023-02-21T12:16:11.855Z,4.17
2023-02-21T12:18:47.235Z,4.87
2023-02-21T12:21:23.067Z,21.60
2023-02-21T12:24:07.491Z,4.87
2023-02-21T12:26:49.870Z,4.70
2023-02-21T12:29:32.084Z,4.20
2023-02-21T12:32:16.087Z,5.03
2023-02-21T12:35:44.175Z,5.33
2023-02-21T12:38:38.447Z,6.23
2023-02-21T12:41:22.824Z,4.47
2023-02-21T12:44:19.766Z,3.77
2023-02-21T12:47:03.945Z,5.00
2023-02-21T12:50:00.425Z,4.73
2023-02-21T12:53:02.104Z,4.73
2023-02-21T12:55:44.645Z,6.20
2023-02-21T12:58:14.265Z,8.37
2023-02-21T13:00:44.065Z,4.00
2023-02-21T13:03:30.996Z,2.93
2023-02-21T13:06:07.009Z,4.40
2023-02-21T13:08:55.268Z,5.40
2023-02-21T13:11:24.616Z,6.10
2023-02-21T13:13:51.267Z,3.47
2023-02-21T13:16:18.809Z,4.13
2023-02-21T13:19:03.159Z,2.90
2023-02-21T13:22:07.605Z,2.03
2023-02-21T13:24:55.603Z,3.37
2023-02-21T13:27:50.751Z,3.00
2023-02-21T13:30:24.055Z,5.37
2023-02-21T13:32:59.769Z,3.50
2023-02-21T13:35:32.441Z,3.97
2023-02-21T13:38:00.241Z,4.40
2023-02-21T13:40:37.019Z,4.80
2023-02-21T13:43:06.439Z,4.57
2023-02-21T13:45:33.674Z,4.07
2023-02-21T13:48:00.293Z,1.20
2023-02-21T13:50:39.594Z,2.80
2023-02-21T13:53:09.237Z,4.40
2023-02-21T13:55:37.083Z,1.77
2023-02-21T13:58:05.223Z,2.10
2023-02-21T14:00:31.939Z,3.00
2023-02-21T14:03:07.443Z,1.50
2023-02-21T14:05:52.328Z,1.93
2023-02-21T14:08:24.969Z,3.10
2023-02-21T14:11:05.154Z,4.23
2023-02-21T14:13:44.061Z,2.53
2023-02-21T14:16:14.518Z,2.70
2023-02-21T14:18:49.770Z,5.97
2023-02-21T14:21:32.830Z,4.47
2023-02-21T14:24:09.699Z,2.93
2023-02-21T14:26:49.884Z,2.07
2023-02-21T14:29:31.042Z,3.50
2023-02-21T14:32:03.989Z,3.30
2023-02-21T14:34:37.880Z,6.80
2023-02-21T14:37:10.362Z,2.30
2023-02-21T14:39:42.555Z,4.37
2023-02-21T14:42:29.645Z,1.87
2023-02-21T14:45:04.299Z,2.70
2023-02-21T14:47:49.326Z,1.97
2023-02-21T14:50:39.005Z,1.73
2023-02-21T14:53:39.125Z,2.40
2023-02-21T14:56:30.749Z,2.13
2023-02-21T14:59:37.440Z,2.10
2023-02-21T15:02:26.046Z,2.07
2023-02-21T15:05:06.403Z,1.53
2023-02-21T15:07:48.131Z,2.67
2023-02-21T15:10:27.577Z,2.00
2023-02-21T15:13:00.407Z,1.50
2023-02-21T15:15:33.909Z,5.17
2023-02-21T15:18:06.742Z,0.87
2023-02-21T15:20:35.645Z,2.83
2023-02-21T15:23:16.712Z,1.90
2023-02-21T15:25:44.554Z,3.67
2023-02-21T15:28:30.669Z,2.27
2023-02-21T15:31:03.638Z,2.37
2023-02-21T15:33:34.125Z,2.37
2023-02-21T15:36:06.860Z,1.67
2023-02-21T15:38:45.512Z,2.27
2023-02-21T15:41:39.226Z,4.90
2023-02-21T15:44:13.744Z,2.83
2023-02-21T15:47:07.805Z,3.37
2023-02-21T15:50:02.763Z,7.70
2023-02-21T15:52:40.103Z,3.10
2023-02-21T15:55:36.354Z,2.73
2023-02-21T15:58:14.255Z,1.80
2023-02-21T16:00:42.017Z,2.43
2023-02-21T16:03:48.808Z,2.33
2023-02-21T16:06:29.978Z,1.20
2023-02-21T16:09:07.405Z,4.07
2023-02-21T16:11:43.034Z,2.37
2023-02-21T16:14:43.257Z,2.13
2023-02-21T16:17:44.218Z,1.87
2023-02-21T16:20:44.514Z,3.63
2023-02-21T16:23:19.842Z,8.83
2023-02-21T16:25:59.605Z,50.03
2023-02-21T16:28:26.864Z,25.97
2023-02-21T16:30:58.092Z,8.20
2023-02-21T16:33:25.844Z,3.60
2023-02-21T16:35:52.733Z,2.87
2023-02-21T16:38:21.980Z,7.93
2023-02-21T16:40:48.872Z,2.80
2023-02-21T16:43:21.759Z,7.80
2023-02-21T16:45:51.806Z,3.97
2023-02-21T16:48:32.901Z,7.20
2023-02-21T16:51:07.064Z,16.17
2023-02-21T16:53:34.005Z,5.10
2023-02-21T16:56:02.155Z,4.23
2023-02-21T16:58:34.876Z,3.27
2023-02-21T17:01:27.226Z,32.40
2023-02-21T17:03:54.110Z,4.77
2023-02-21T17:06:23.147Z,5.10
2023-02-21T17:08:50.307Z,9.70
2023-02-21T17:11:17.248Z,10.83
2023-02-21T17:13:44.106Z,2.40
2023-02-21T17:16:11.179Z,3.07
2023-02-21T17:18:37.912Z,2.60
2023-02-21T17:21:04.739Z,5.83
2023-02-21T17:23:31.403Z,3.20
2023-02-21T17:25:58.176Z,4.47
2023-02-21T17:28:24.855Z,2.33
2023-02-21T17:30:51.671Z,3.23
2023-02-21T17:33:18.463Z,2.33
2023-02-21T17:35:45.139Z,2.70
2023-02-21T17:38:11.817Z,3.70
2023-02-21T17:40:38.498Z,4.30
2023-02-21T17:43:08.597Z,4.87
2023-02-21T17:45:38.712Z,6.00
2023-02-21T17:48:06.088Z,2.13
2023-02-21T17:50:33.010Z,5.10
2023-02-21T17:52:59.928Z,7.87
2023-02-21T17:55:28.908Z,3.80
2023-02-21T17:57:55.910Z,5.97
2023-02-21T18:00:25.353Z,5.40
2023-02-21T18:02:53.575Z,8.00
2023-02-21T18:05:21.094Z,4.93
2023-02-21T18:07:53.370Z,4.13
2023-02-21T18:10:22.856Z,6.87
2023-02-21T18:12:51.317Z,2.50
2023-02-21T18:15:20.773Z,1.83
2023-02-21T18:17:47.588Z,6.80
2023-02-21T18:20:15.781Z,1.80
2023-02-21T18:22:42.819Z,3.73
2023-02-21T18:25:09.549Z,2.57
2023-02-21T18:27:36.946Z,2.27
2023-02-21T18:30:04.322Z,2.93
2023-02-21T18:32:31.243Z,3.93
2023-02-21T18:34:59.737Z,5.10
2023-02-21T18:37:26.442Z,1.30
2023-02-21T18:39:54.325Z,2.00
2023-02-21T18:42:23.602Z,3.03
2023-02-21T18:44:51.424Z,4.50
2023-02-21T18:47:19.227Z,2.87
2023-02-21T18:49:47.461Z,5.23
2023-02-21T18:52:15.912Z,5.23
2023-02-21T18:54:44.509Z,3.40
2023-02-21T18:57:11.357Z,2.27
2023-02-21T18:59:38.234Z,4.60
2023-02-21T19:02:05.996Z,6.13
2023-02-21T19:04:33.581Z,3.67
2023-02-21T19:07:06.923Z,5.23
2023-02-21T19:09:35.444Z,13.00
2023-02-21T19:12:08.266Z,9.40
2023-02-21T19:14:36.206Z,10.00
2023-02-21T19:17:03.289Z,7.23
2023-02-21T19:19:31.344Z,9.60
2023-02-21T19:22:01.177Z,5.47
2023-02-21T19:24:28.166Z,6.30
2023-02-21T19:26:54.999Z,11.33
2023-02-21T19:29:21.810Z,6.53
2023-02-21T19:31:49.076Z,7.07
2023-02-21T19:34:16.240Z,9.20
2023-02-21T19:36:43.043Z,8.53
2023-02-21T19:39:11.600Z,6.07
2023-02-21T19:41:38.772Z,5.47
2023-02-21T19:44:06.047Z,5.07
2023-02-21T19:46:32.808Z,3.33
2023-02-21T19:48:59.704Z,7.73
2023-02-21T19:51:28.353Z,5.57
2023-02-21T19:53:58.786Z,7.50
2023-02-21T19:56:29.456Z,3.10
2023-02-21T19:58:57.986Z,2.80
2023-02-21T20:01:26.424Z,4.63
2023-02-21T20:03:53.229Z,5.60
2023-02-21T20:06:20.002Z,8.63
2023-02-21T20:08:48.194Z,5.70
2023-02-21T20:11:17.343Z,4.10
2023-02-21T20:13:44.529Z,2.30
2023-02-21T20:16:15.187Z,4.60
2023-02-21T20:18:45.693Z,5.20
2023-02-21T20:21:23.878Z,2.40
2023-02-21T20:23:51.633Z,4.70
2023-02-21T20:26:18.520Z,4.03
2023-02-21T20:28:47.618Z,3.60
2023-02-21T20:31:15.130Z,2.93
2023-02-21T20:33:42.306Z,3.87
2023-02-21T20:36:09.516Z,3.33
2023-02-21T20:38:37.469Z,4.50
2023-02-21T20:41:07.345Z,3.53
2023-02-21T20:43:35.257Z,5.23
2023-02-21T20:46:02.204Z,3.93
2023-02-21T20:48:29.077Z,6.70
2023-02-21T20:50:55.719Z,9.70
2023-02-21T20:53:22.431Z,7.30
2023-02-21T20:55:49.063Z,9.60
2023-02-21T20:58:16.004Z,5.07
2023-02-21T21:00:42.673Z,5.53
2023-02-21T21:03:14.111Z,4.80
2023-02-21T21:05:42.328Z,5.23
2023-02-21T21:08:09.435Z,8.30
2023-02-21T21:10:37.291Z,8.30
2023-02-21T21:13:04.605Z,10.27
2023-02-21T21:15:31.410Z,9.47
2023-02-21T21:17:58.177Z,6.60
2023-02-21T21:20:27.017Z,7.13
2023-02-21T21:22:53.758Z,6.30
2023-02-21T21:25:22.510Z,3.83
2023-02-21T21:27:49.309Z,3.33
2023-02-21T21:30:22.394Z,3.33
2023-02-21T21:32:49.569Z,3.13
2023-02-21T21:35:17.600Z,4.17
2023-02-21T21:37:44.319Z,4.93
2023-02-21T21:40:17.293Z,4.83
2023-02-21T21:42:47.324Z,3.77
2023-02-21T21:45:19.238Z,4.20
2023-02-21T21:47:47.575Z,3.17
2023-02-21T21:50:15.563Z,4.60
2023-02-21T21:52:50.721Z,9.00
2023-02-21T21:55:20.731Z,5.47
2023-02-21T21:57:53.149Z,4.07
2023-02-21T22:00:28.224Z,5.30
2023-02-21T22:02:59.743Z,5.60
2023-02-21T22:05:30.223Z,5.67
2023-02-21T22:07:57.543Z,4.10
2023-02-21T22:10:25.656Z,5.20
2023-02-21T22:12:54.056Z,3.57
2023-02-21T22:15:23.267Z,6.30
2023-02-21T22:17:50.445Z,3.67
2023-02-21T22:20:19.589Z,3.23
2023-02-21T22:22:48.937Z,6.37
2023-02-21T22:25:20.938Z,6.80
2023-02-21T22:27:48.536Z,7.47
2023-02-21T22:30:17.845Z,8.03
2023-02-21T22:32:46.139Z,4.23
2023-02-21T22:35:18.672Z,4.97
2023-02-21T22:37:47.189Z,4.50
2023-02-21T22:40:17.781Z,5.93
2023-02-21T22:42:45.404Z,4.10
2023-02-21T22:45:12.358Z,6.60
2023-02-21T22:47:39.200Z,6.50
2023-02-21T22:50:06.200Z,7.13
2023-02-21T22:52:32.905Z,7.90
2023-02-21T22:54:59.608Z,7.73
2023-02-21T22:57:27.402Z,7.93
2023-02-21T22:59:55.776Z,7.87
2023-02-21T23:02:22.517Z,8.50
2023-02-21T23:04:49.339Z,5.97
2023-02-21T23:07:17.248Z,8.30
2023-02-21T23:09:43.960Z,5.70
2023-02-21T23:12:11.160Z,6.00
2023-02-21T23:14:39.394Z,9.50
2023-02-21T23:17:06.407Z,3.43
2023-02-21T23:19:33.066Z,3.10
2023-02-21T23:22:00.016Z,3.50
2023-02-21T23:24:28.017Z,4.53
2023-02-21T23:26:54.991Z,5.90
2023-02-21T23:29:25.249Z,8.70
2023-02-21T23:31:54.282Z,14.13
2023-02-21T23:34:21.080Z,5.60
2023-02-21T23:36:49.082Z,5.33
2023-02-21T23:39:15.810Z,4.37
2023-02-21T23:41:48.397Z,4.13
2023-02-21T23:44:15.698Z,7.10
2023-02-21T23:46:44.165Z,10.17
2023-02-21T23:49:15.367Z,11.17
2023-02-21T23:51:43.574Z,9.47
2023-02-21T23:54:11.051Z,9.17
2023-02-21T23:56:39.986Z,10.93
2023-02-21T23:59:07.192Z,7.87
